Požarna ogroženost Od: 10-04-2020 00:00 Do: 13-04-2020 23:59 Opozorilo za: Požarna ogroženost Stopnja: Rumena info button
Legenda:
Majhna (0-210)
Zelo visoka (490 - 630)

Srednja (210 - 350)
Ekstremna (630+)

Visoka (350 - 490)


 
309.66
Date Temp. (°C) Wind Speed (km/h) Rain (mm) RH% Days Since Rain pwsFWI
Napovedi, vključno z današnjim dnem, so nad rdečo črto!
14/04/20 12,00 22,00 0,30 0,40 0 207,94
13/04/20 16,00 10,00 0,00 0,48 14 242,51
12/04/20 20,00 11,00 0,00 0,32 13 272,66
11/04/20 20,00 10,00 0,00 0,35 12 282,95
10/04/20 21,00 8,00 0,00 0,32 11 306,22
09/04/20 22,60 15,00 0,00 0,27 10 309,66
08/04/20 16,90 19,70 0,00 0,24 9 277,68
07/04/20 17,30 16,70 0,00 0,24 8 240,28
06/04/20 16,30 18,10 0,00 0,31 7 204,18
05/04/20 15,90 22,60 0,00 0,33 6 172,87
04/04/20 15,10 14,80 0,00 0,38 5 101,40
03/04/20 16,10 13,90 0,00 0,43 4 100,30
02/04/20 13,10 10,80 0,00 0,35 3 103,28
01/04/20 7,50 12,00 0,00 0,40 2 81,15
31/03/20 4,10 19,40 0,00 0,50 1 81,12
30/03/20 8,80 19,20 5,20 0,63 0 88,04
29/03/20 17,10 13,20 0,00 0,39 2 116,34
28/03/20 13,90 17,90 0,00 0,42 1 116,58
27/03/20 10,30 27,20 3,10 0,54 0 98,32
26/03/20 3,30 53,10 76,20 0,70 0 119,47
25/03/20 1,90 28,00 1,00 0,53 0 143,17
24/03/20 4,70 29,90 0,50 0,38 0 164,07
23/03/20 4,90 26,50 0,00 0,29 1 156,23
22/03/20 4,60 20,70 2,10 0,51 0 151,67
21/03/20 16,00 17,90 0,50 0,56 0 184,76
20/03/20 17,30 16,20 0,00 0,50 5 185,98
19/03/20 19,50 15,00 0,00 0,42 4 153,06
18/03/20 17,20 10,40 0,00 0,44 3 112,71
17/03/20 15,90 10,30 0,00 0,45 2 117,00
16/03/20 14,90 18,40 0,00 0,33 1 120,06
sucontract_SNC